createdAt,value
2022-08-28T00:00:41.849Z,68.79
2022-08-28T00:03:13.757Z,68.25
2022-08-28T00:05:44.813Z,68.01
2022-08-28T00:08:16.861Z,68.18
2022-08-28T00:10:47.170Z,67.88
2022-08-28T00:13:20.624Z,68.56
2022-08-28T00:15:53.116Z,69.27
2022-08-28T00:18:22.051Z,68.16
2022-08-28T00:20:51.739Z,68.17
2022-08-28T00:23:22.207Z,68.02
2022-08-28T00:25:49.914Z,68.03
2022-08-28T00:28:23.491Z,67.77
2022-08-28T00:30:59.045Z,68.73
2022-08-28T00:33:34.225Z,70.17
2022-08-28T00:36:03.938Z,68.55
2022-08-28T00:38:31.736Z,68.78
2022-08-28T00:41:03.906Z,69.04
2022-08-28T00:43:40.117Z,69.83
2022-08-28T00:46:19.875Z,69.93
2022-08-28T00:48:48.920Z,68.63
2022-08-28T00:51:55.686Z,69.21
2022-08-28T00:54:25.042Z,69.61
2022-08-28T00:56:55.658Z,69.71
2022-08-28T00:59:26.109Z,69.59
2022-08-28T01:01:58.525Z,70.02
2022-08-28T01:04:29.921Z,69.16
2022-08-28T01:07:01.460Z,69.23
2022-08-28T01:09:32.674Z,69.45
2022-08-28T01:12:09.078Z,69.78
2022-08-28T01:14:41.600Z,69.71
2022-08-28T01:17:11.209Z,69.94
2022-08-28T01:19:52.334Z,70.90
2022-08-28T01:22:52.831Z,71.39
2022-08-28T01:25:24.750Z,69.04
2022-08-28T01:27:52.672Z,69.71
2022-08-28T01:30:23.492Z,70.32
2022-08-28T01:32:56.773Z,70.50
2022-08-28T01:35:31.622Z,71.34
2022-08-28T01:38:00.705Z,69.84
2022-08-28T01:40:37.994Z,70.77
2022-08-28T01:43:20.481Z,71.26
2022-08-28T01:45:54.007Z,70.71
2022-08-28T01:48:26.438Z,70.39
2022-08-28T01:50:55.445Z,70.43
2022-08-28T01:53:32.143Z,70.87
2022-08-28T01:56:05.224Z,70.43
2022-08-28T01:58:37.922Z,70.50
2022-08-28T02:01:15.813Z,71.32
2022-08-28T02:03:44.041Z,70.42
2022-08-28T02:06:15.129Z,70.51
2022-08-28T02:08:43.060Z,70.30
2022-08-28T02:13:58.017Z,70.69
2022-08-28T02:16:27.237Z,70.97
2022-08-28T02:18:56.847Z,70.00
2022-08-28T02:21:25.281Z,69.20
2022-08-28T02:23:53.796Z,69.98
2022-08-28T02:26:21.930Z,70.31
2022-08-28T02:28:50.364Z,70.19
2022-08-28T02:31:18.208Z,70.21
2022-08-28T02:33:46.202Z,70.19
2022-08-28T02:36:16.110Z,70.74
2022-08-28T02:38:47.496Z,70.10
2022-08-28T02:41:15.284Z,70.42
2022-08-28T02:43:43.299Z,70.05
2022-08-28T02:46:11.609Z,69.83
2022-08-28T02:48:40.653Z,70.22
2022-08-28T02:51:13.418Z,70.92
2022-08-28T02:53:42.431Z,70.18
2022-08-28T02:56:10.553Z,69.84
2022-08-28T02:58:39.885Z,70.57
2022-08-28T03:01:11.458Z,70.40
2022-08-28T03:03:41.455Z,70.13
2022-08-28T03:06:12.671Z,70.76
2022-08-28T03:08:42.994Z,70.28
2022-08-28T03:11:12.113Z,70.65
2022-08-28T03:13:39.898Z,70.20
2022-08-28T03:16:08.802Z,70.09
2022-08-28T03:18:37.056Z,70.13
2022-08-28T03:21:05.010Z,70.07
2022-08-28T03:23:32.744Z,70.08
2022-08-28T03:26:09.035Z,70.22
2022-08-28T03:28:47.230Z,70.80
2022-08-28T03:31:19.966Z,70.51
2022-08-28T03:33:48.934Z,70.41
2022-08-28T03:36:23.066Z,70.62
2022-08-28T03:38:53.247Z,71.48
2022-08-28T03:41:24.486Z,70.14
2022-08-28T03:43:52.428Z,70.35
2022-08-28T03:46:24.531Z,70.88
2022-08-28T03:48:53.970Z,70.60
2022-08-28T03:51:29.233Z,70.40
2022-08-28T03:54:03.338Z,70.71
2022-08-28T03:56:31.346Z,70.80
2022-08-28T03:59:02.164Z,71.29
2022-08-28T04:01:30.115Z,70.98
2022-08-28T04:03:58.102Z,70.88
2022-08-28T04:06:28.104Z,71.09
2022-08-28T04:09:00.027Z,72.70
2022-08-28T04:11:29.204Z,71.17
2022-08-28T04:13:57.958Z,71.18
2022-08-28T04:16:25.760Z,71.77
2022-08-28T04:18:53.585Z,71.10
2022-08-28T04:21:26.043Z,71.80
2022-08-28T04:23:54.944Z,71.30
2022-08-28T04:26:26.878Z,71.70
2022-08-28T04:28:56.160Z,71.19
2022-08-28T04:31:32.091Z,71.41
2022-08-28T04:34:07.008Z,71.80
2022-08-28T04:36:35.621Z,70.42
2022-08-28T04:39:08.531Z,70.64
2022-08-28T04:41:38.607Z,70.70
2022-08-28T04:44:07.399Z,71.51
2022-08-28T04:46:36.704Z,71.63
2022-08-28T04:49:05.869Z,71.09
2022-08-28T04:51:36.908Z,71.35
2022-08-28T04:54:08.302Z,71.43
2022-08-28T04:56:36.564Z,71.04
2022-08-28T04:59:04.534Z,70.88
2022-08-28T05:01:32.955Z,71.00
2022-08-28T05:04:03.922Z,71.12
2022-08-28T05:06:33.746Z,71.42
2022-08-28T05:09:04.436Z,71.18
2022-08-28T05:11:34.592Z,71.36
2022-08-28T05:14:15.849Z,71.91
2022-08-28T05:16:50.836Z,72.13
2022-08-28T05:19:21.722Z,70.97
2022-08-28T05:21:49.626Z,70.58
2022-08-28T05:24:18.191Z,70.46
2022-08-28T05:26:48.257Z,70.97
2022-08-28T05:29:17.874Z,71.96
2022-08-28T05:31:46.311Z,71.97
2022-08-28T05:34:15.298Z,71.65
2022-08-28T05:36:43.242Z,71.16
2022-08-28T05:39:13.351Z,71.48
2022-08-28T05:41:43.477Z,74.13
2022-08-28T05:44:14.619Z,71.94
2022-08-28T05:46:47.747Z,72.03
2022-08-28T05:49:18.417Z,72.10
2022-08-28T05:51:47.556Z,71.87
2022-08-28T05:54:16.768Z,72.23
2022-08-28T05:56:46.328Z,71.38
2022-08-28T05:59:16.069Z,71.19
2022-08-28T06:01:49.775Z,72.52
2022-08-28T06:04:25.374Z,71.59
2022-08-28T06:06:54.050Z,71.85
2022-08-28T06:09:29.911Z,72.10
2022-08-28T06:12:02.399Z,71.17
2022-08-28T06:14:31.511Z,71.16
2022-08-28T06:17:01.005Z,72.88
2022-08-28T06:19:32.776Z,70.58
2022-08-28T06:22:07.299Z,71.03
2022-08-28T06:24:36.097Z,71.38
2022-08-28T06:27:04.382Z,70.48
2022-08-28T06:29:32.217Z,70.36
2022-08-28T06:32:04.808Z,69.99
2022-08-28T06:34:32.733Z,70.16
2022-08-28T06:37:00.899Z,69.59
2022-08-28T06:39:28.641Z,69.84
2022-08-28T06:41:56.327Z,69.14
2022-08-28T06:44:24.313Z,68.59
2022-08-28T06:46:54.703Z,67.87
2022-08-28T06:49:22.997Z,68.38
2022-08-28T06:51:51.467Z,67.81
2022-08-28T06:54:22.812Z,67.65
2022-08-28T06:56:52.670Z,67.55
2022-08-28T06:59:20.676Z,67.72
2022-08-28T07:01:49.361Z,67.82
2022-08-28T07:04:17.300Z,67.43
2022-08-28T07:06:46.961Z,66.31
2022-08-28T07:09:14.869Z,64.58
2022-08-28T07:11:49.132Z,66.01
2022-08-28T07:14:17.335Z,65.86
2022-08-28T07:16:45.157Z,65.34
2022-08-28T07:19:13.817Z,65.40
2022-08-28T07:21:45.031Z,64.85
2022-08-28T07:24:15.463Z,64.43
2022-08-28T07:26:46.288Z,63.97
2022-08-28T07:29:14.431Z,62.44
2022-08-28T07:31:48.304Z,62.04
2022-08-28T07:34:18.679Z,62.59
2022-08-28T07:36:46.959Z,61.47
2022-08-28T07:39:16.073Z,61.70
2022-08-28T07:41:44.645Z,62.01
2022-08-28T07:44:33.913Z,61.64
2022-08-28T07:47:05.779Z,60.75
2022-08-28T07:49:35.166Z,60.89
2022-08-28T07:52:04.071Z,59.92
2022-08-28T07:54:31.852Z,61.01
2022-08-28T07:56:59.526Z,59.49
2022-08-28T07:59:28.787Z,59.83
2022-08-28T08:02:05.340Z,59.44
2022-08-28T08:04:33.335Z,60.34
2022-08-28T08:07:03.553Z,58.53
2022-08-28T08:09:31.617Z,58.00
2022-08-28T08:12:00.325Z,59.34
2022-08-28T08:14:28.660Z,58.16
2022-08-28T08:16:56.360Z,56.89
2022-08-28T08:19:24.233Z,56.68
2022-08-28T08:21:55.194Z,55.42
2022-08-28T08:24:26.533Z,55.16
2022-08-28T08:27:00.801Z,55.43
2022-08-28T08:29:35.666Z,54.13
2022-08-28T08:32:10.630Z,54.58
2022-08-28T08:34:42.825Z,53.88
2022-08-28T08:37:11.830Z,55.04
2022-08-28T08:39:42.171Z,53.11
2022-08-28T08:42:26.079Z,53.87
2022-08-28T08:44:58.593Z,53.21
2022-08-28T08:47:47.793Z,51.79
2022-08-28T08:50:34.481Z,52.22
2022-08-28T08:53:26.851Z,51.87
2022-08-28T08:55:58.315Z,52.93
2022-08-28T08:58:41.183Z,51.34
2022-08-28T09:01:27.505Z,52.71
2022-08-28T09:04:09.525Z,51.08
2022-08-28T09:07:39.581Z,49.15
2022-08-28T09:10:12.410Z,48.34
2022-08-28T09:13:16.942Z,50.96
2022-08-28T09:15:50.657Z,50.76
2022-08-28T09:18:26.242Z,49.31
2022-08-28T09:20:58.546Z,48.73
2022-08-28T09:23:29.059Z,45.97
2022-08-28T09:26:03.804Z,45.92
2022-08-28T09:28:40.902Z,44.59
2022-08-28T09:31:13.223Z,45.77
2022-08-28T09:33:51.859Z,44.32
2022-08-28T09:36:32.531Z,44.60
2022-08-28T09:39:12.184Z,44.25
2022-08-28T09:42:07.602Z,43.81
2022-08-28T09:44:51.832Z,42.93
2022-08-28T09:47:55.032Z,43.30
2022-08-28T09:50:37.492Z,44.51
2022-08-28T09:53:11.621Z,42.42
2022-08-28T09:55:57.222Z,41.86
2022-08-28T09:58:37.471Z,41.66
2022-08-28T10:01:44.861Z,40.26
2022-08-28T10:04:40.528Z,40.81
2022-08-28T10:07:57.931Z,40.08
2022-08-28T10:10:55.483Z,40.78
2022-08-28T10:13:38.797Z,39.30
2022-08-28T10:16:54.730Z,39.06
2022-08-28T10:19:58.359Z,40.08
2022-08-28T10:22:53.902Z,41.06
2022-08-28T10:25:33.336Z,39.91
2022-08-28T10:28:12.456Z,39.51
2022-08-28T10:30:55.165Z,39.49
2022-08-28T10:33:58.766Z,40.21
2022-08-28T10:36:34.437Z,40.22
2022-08-28T10:39:45.325Z,40.10
2022-08-28T10:42:33.750Z,40.27
2022-08-28T10:45:16.118Z,39.02
2022-08-28T10:47:52.097Z,39.08
2022-08-28T10:50:26.372Z,39.94
2022-08-28T10:53:11.915Z,39.53
2022-08-28T10:55:57.246Z,39.35
2022-08-28T10:58:27.572Z,39.36
2022-08-28T11:01:05.886Z,40.39
2022-08-28T11:03:46.331Z,40.12
2022-08-28T11:06:32.379Z,39.27
2022-08-28T11:09:24.905Z,39.70
2022-08-28T11:12:19.898Z,39.89
2022-08-28T11:14:53.564Z,40.79
2022-08-28T11:17:27.833Z,40.19
2022-08-28T11:20:25.122Z,39.92
2022-08-28T11:23:20.291Z,39.62
2022-08-28T11:26:02.349Z,38.46
2022-08-28T11:28:35.910Z,38.33
2022-08-28T11:31:06.399Z,39.45
2022-08-28T11:33:48.514Z,39.65
2022-08-28T11:36:21.694Z,40.60
2022-08-28T11:38:52.070Z,40.20
2022-08-28T11:41:39.114Z,39.31
2022-08-28T11:44:09.587Z,39.99
2022-08-28T11:46:45.591Z,39.60
2022-08-28T11:49:33.944Z,38.74
2022-08-28T11:52:19.412Z,39.52
2022-08-28T11:55:08.578Z,38.99
2022-08-28T11:57:45.644Z,39.49
2022-08-28T12:00:35.406Z,38.32
2022-08-28T12:03:24.480Z,38.96
2022-08-28T12:05:57.118Z,39.59
2022-08-28T12:08:53.442Z,38.59
2022-08-28T12:11:39.681Z,37.88
2022-08-28T12:14:11.882Z,38.40
2022-08-28T12:17:26.861Z,38.20
2022-08-28T12:20:10.702Z,38.49
2022-08-28T12:22:53.117Z,38.27
2022-08-28T12:25:35.320Z,38.51
2022-08-28T12:28:18.817Z,38.37
2022-08-28T12:31:20.537Z,38.18
2022-08-28T12:34:04.567Z,38.16
2022-08-28T12:36:33.865Z,38.06
2022-08-28T12:39:01.700Z,38.43
2022-08-28T12:41:30.616Z,39.10
2022-08-28T12:44:00.385Z,39.08
2022-08-28T12:46:37.660Z,37.36
2022-08-28T12:49:30.899Z,38.33
2022-08-28T12:52:19.002Z,37.00
2022-08-28T12:54:49.574Z,37.67
2022-08-28T12:57:26.601Z,38.24
2022-08-28T13:00:06.465Z,37.50
2022-08-28T13:02:35.088Z,38.80
2022-08-28T13:05:29.209Z,39.10
2022-08-28T13:08:01.054Z,39.23
2022-08-28T13:10:47.380Z,38.22
2022-08-28T13:13:23.197Z,39.14
2022-08-28T13:16:01.490Z,39.17
2022-08-28T13:18:39.335Z,39.36
2022-08-28T13:21:33.409Z,39.27
2022-08-28T13:24:22.243Z,38.06
2022-08-28T13:27:20.331Z,39.01
2022-08-28T13:30:22.169Z,38.27
2022-08-28T13:33:20.141Z,38.49
2022-08-28T13:35:48.884Z,38.26
2022-08-28T13:38:22.590Z,37.66
2022-08-28T13:40:59.420Z,37.24
2022-08-28T13:43:42.335Z,37.23
2022-08-28T13:46:10.411Z,37.48
2022-08-28T13:48:38.393Z,38.60
2022-08-28T13:51:14.239Z,37.28
2022-08-28T13:53:50.594Z,37.91
2022-08-28T13:56:21.846Z,38.49
2022-08-28T13:58:57.645Z,38.02
2022-08-28T14:01:49.072Z,37.96
2022-08-28T14:04:16.998Z,38.77
2022-08-28T14:06:44.744Z,38.97
2022-08-28T14:09:15.350Z,38.53
2022-08-28T14:11:47.642Z,38.34
2022-08-28T14:14:16.053Z,38.12
2022-08-28T14:16:45.603Z,38.86
2022-08-28T14:19:13.661Z,38.93
2022-08-28T14:21:41.901Z,39.43
2022-08-28T14:24:09.811Z,39.07
2022-08-28T14:26:38.174Z,39.35
2022-08-28T14:29:09.412Z,38.91
2022-08-28T14:31:40.814Z,39.43
2022-08-28T14:34:14.750Z,39.15
2022-08-28T14:36:43.423Z,39.49
2022-08-28T14:39:13.131Z,39.94
2022-08-28T14:41:47.113Z,40.01
2022-08-28T14:44:15.970Z,39.82
2022-08-28T14:46:46.331Z,39.91
2022-08-28T14:49:16.685Z,39.22
2022-08-28T14:51:46.928Z,38.95
2022-08-28T14:54:18.584Z,38.53
2022-08-28T14:56:47.521Z,39.25
2022-08-28T14:59:25.033Z,39.52
2022-08-28T15:01:58.115Z,38.75
2022-08-28T15:04:34.352Z,38.85
2022-08-28T15:07:08.515Z,38.18
2022-08-28T15:09:41.216Z,38.05
2022-08-28T15:12:09.525Z,39.07
2022-08-28T15:14:37.461Z,38.51
2022-08-28T15:17:05.775Z,39.46
2022-08-28T15:19:33.795Z,40.05
2022-08-28T15:22:02.038Z,39.33
2022-08-28T15:24:34.560Z,39.50
2022-08-28T15:27:03.279Z,39.96
2022-08-28T15:29:31.058Z,40.62
2022-08-28T15:32:00.790Z,41.14
2022-08-28T15:34:29.153Z,41.58
2022-08-28T15:36:58.594Z,41.58
2022-08-28T15:39:47.400Z,41.89
2022-08-28T15:42:15.388Z,42.03
2022-08-28T15:44:43.589Z,43.10
2022-08-28T15:47:13.799Z,43.84
2022-08-28T15:49:46.780Z,44.45
2022-08-28T15:52:19.161Z,44.75
2022-08-28T15:54:48.275Z,45.16
2022-08-28T15:57:17.646Z,45.78
2022-08-28T15:59:49.709Z,46.08
2022-08-28T16:02:22.597Z,46.27
2022-08-28T16:04:51.234Z,46.61
2022-08-28T16:07:20.855Z,47.05
2022-08-28T16:09:49.694Z,47.15
2022-08-28T16:12:18.620Z,47.00
2022-08-28T16:14:46.958Z,47.64
2022-08-28T16:17:15.127Z,47.66
2022-08-28T16:19:46.108Z,47.65
2022-08-28T16:22:17.604Z,47.58
2022-08-28T16:24:51.703Z,48.28
2022-08-28T16:27:19.878Z,48.02
2022-08-28T16:29:52.718Z,48.82
2022-08-28T16:32:20.883Z,48.79
2022-08-28T16:34:49.538Z,48.83
2022-08-28T16:37:20.830Z,48.75
2022-08-28T16:39:56.074Z,49.08
2022-08-28T16:42:24.795Z,48.85
2022-08-28T16:44:59.802Z,49.53
2022-08-28T16:47:31.808Z,49.17
2022-08-28T16:50:02.492Z,50.23
2022-08-28T16:52:30.332Z,50.48
2022-08-28T16:54:59.937Z,50.54
2022-08-28T16:57:28.161Z,51.43
2022-08-28T16:59:56.078Z,51.48
2022-08-28T17:02:26.412Z,51.65
2022-08-28T17:04:55.876Z,51.93
2022-08-28T17:07:23.618Z,52.25
2022-08-28T17:09:51.420Z,52.02
2022-08-28T17:12:19.353Z,51.88
2022-08-28T17:14:47.016Z,52.11
2022-08-28T17:17:15.147Z,52.65
2022-08-28T17:19:43.018Z,53.20
2022-08-28T17:22:30.221Z,53.00
2022-08-28T17:25:09.533Z,54.64
2022-08-28T17:27:38.437Z,53.82
2022-08-28T17:30:09.278Z,54.10
2022-08-28T17:32:37.369Z,53.94
2022-08-28T17:35:05.623Z,54.04
2022-08-28T17:37:33.383Z,54.31
2022-08-28T17:40:01.191Z,54.58
2022-08-28T17:42:29.098Z,55.29
2022-08-28T17:44:56.780Z,55.33
2022-08-28T17:47:26.411Z,56.52
2022-08-28T17:50:00.568Z,56.77
2022-08-28T17:52:29.585Z,56.58
2022-08-28T17:54:57.455Z,56.14
2022-08-28T17:57:25.300Z,56.32
2022-08-28T17:59:53.409Z,57.54
2022-08-28T18:02:21.317Z,57.54
2022-08-28T18:04:50.352Z,57.32
2022-08-28T18:07:18.375Z,57.13
2022-08-28T18:09:46.470Z,56.61
2022-08-28T18:12:14.510Z,54.16
2022-08-28T18:14:42.507Z,54.47
2022-08-28T18:17:11.490Z,53.51
2022-08-28T18:19:40.350Z,52.94
2022-08-28T18:22:11.755Z,51.82
2022-08-28T18:24:40.866Z,50.21
2022-08-28T18:27:09.563Z,49.75
2022-08-28T18:29:39.686Z,49.80
2022-08-28T18:32:08.191Z,49.78
2022-08-28T18:34:37.089Z,50.01
2022-08-28T18:37:05.293Z,50.56
2022-08-28T18:39:36.069Z,50.56
2022-08-28T18:42:04.306Z,48.82
2022-08-28T18:44:34.039Z,48.67
2022-08-28T18:47:02.266Z,48.43
2022-08-28T18:49:30.284Z,49.00
2022-08-28T18:51:58.303Z,49.79
2022-08-28T18:54:26.365Z,50.18
2022-08-28T18:57:01.444Z,51.76
2022-08-28T18:59:33.339Z,50.42
2022-08-28T19:02:01.304Z,50.31
2022-08-28T19:04:29.127Z,50.67
2022-08-28T19:06:56.874Z,50.50
2022-08-28T19:09:31.709Z,50.58
2022-08-28T19:12:00.697Z,50.91
2022-08-28T19:14:28.518Z,51.68
2022-08-28T19:16:56.669Z,52.29
2022-08-28T19:19:24.717Z,53.30
2022-08-28T19:21:52.473Z,53.21
2022-08-28T19:24:22.473Z,53.53
2022-08-28T19:26:50.315Z,53.84
2022-08-28T19:29:19.368Z,54.35
2022-08-28T19:31:47.096Z,55.10
2022-08-28T19:34:14.899Z,54.76
2022-08-28T19:36:42.646Z,55.35
2022-08-28T19:39:11.071Z,55.62
2022-08-28T19:41:39.226Z,56.07
2022-08-28T19:44:07.853Z,56.84
2022-08-28T19:46:38.679Z,56.92
2022-08-28T19:49:07.551Z,56.66
2022-08-28T19:51:38.234Z,57.31
2022-08-28T19:54:11.125Z,57.64
2022-08-28T19:56:40.972Z,57.76
2022-08-28T19:59:09.351Z,60.82
2022-08-28T20:01:43.625Z,59.73
2022-08-28T20:04:16.725Z,59.79
2022-08-28T20:06:45.769Z,59.03
2022-08-28T20:09:14.206Z,58.58
2022-08-28T20:11:45.041Z,59.44
2022-08-28T20:14:15.248Z,59.73
2022-08-28T20:16:46.259Z,60.26
2022-08-28T20:19:15.301Z,59.34
2022-08-28T20:21:45.826Z,60.02
2022-08-28T20:24:21.897Z,59.99
2022-08-28T20:26:50.922Z,59.95
2022-08-28T20:29:19.219Z,60.30
2022-08-28T20:31:48.449Z,61.44
2022-08-28T20:34:19.407Z,61.60
2022-08-28T20:36:47.856Z,61.92
2022-08-28T20:39:16.583Z,62.07
2022-08-28T20:41:46.109Z,62.45
2022-08-28T20:44:18.857Z,63.05
2022-08-28T20:46:51.160Z,62.77
2022-08-28T20:49:22.292Z,62.70
2022-08-28T20:51:54.512Z,62.88
2022-08-28T20:54:30.356Z,64.32
2022-08-28T20:57:03.611Z,63.46
2022-08-28T20:59:37.229Z,63.37
2022-08-28T21:02:13.115Z,64.26
2022-08-28T21:04:43.329Z,64.64
2022-08-28T21:07:13.176Z,64.12
2022-08-28T21:10:06.025Z,66.37
2022-08-28T21:12:29.733Z,64.45
2022-08-28T21:14:58.559Z,65.17
2022-08-28T21:17:29.124Z,64.72
2022-08-28T21:20:01.777Z,64.59
2022-08-28T21:22:31.600Z,64.76
2022-08-28T21:24:59.573Z,64.43
2022-08-28T21:27:27.429Z,64.97
2022-08-28T21:29:58.369Z,65.67
2022-08-28T21:32:28.607Z,65.30
2022-08-28T21:34:56.629Z,65.59
2022-08-28T21:37:24.646Z,66.72
2022-08-28T21:39:53.792Z,66.52
2022-08-28T21:42:25.149Z,66.71
2022-08-28T21:44:54.558Z,66.93
2022-08-28T21:47:24.292Z,67.14
2022-08-28T21:49:55.153Z,66.97
2022-08-28T21:52:29.831Z,69.01
2022-08-28T21:55:00.727Z,67.75
2022-08-28T21:57:29.566Z,68.51
2022-08-28T21:59:58.555Z,70.53
2022-08-28T22:02:27.041Z,71.26
2022-08-28T22:04:55.105Z,69.84
2022-08-28T22:07:22.892Z,70.27
2022-08-28T22:09:50.833Z,68.75
2022-08-28T22:12:18.726Z,69.30
2022-08-28T22:14:46.515Z,68.21
2022-08-28T22:17:15.198Z,68.42
2022-08-28T22:19:43.326Z,69.13
2022-08-28T22:22:34.714Z,70.69
2022-08-28T22:25:02.625Z,70.23
2022-08-28T22:27:32.066Z,69.31
2022-08-28T22:29:59.973Z,69.23
2022-08-28T22:32:28.134Z,67.74
2022-08-28T22:34:55.922Z,67.46
2022-08-28T22:37:23.776Z,67.35
2022-08-28T22:39:52.111Z,68.62
2022-08-28T22:42:19.869Z,68.30
2022-08-28T22:44:47.640Z,68.10
2022-08-28T22:47:15.479Z,70.00
2022-08-28T22:49:47.126Z,70.98
2022-08-28T22:52:15.541Z,70.38
2022-08-28T22:54:43.368Z,70.14
2022-08-28T22:57:11.741Z,70.99
2022-08-28T22:59:39.415Z,72.81
2022-08-28T23:02:07.856Z,72.54
2022-08-28T23:04:35.569Z,73.09
2022-08-28T23:07:03.877Z,73.13
2022-08-28T23:09:31.775Z,73.59
2022-08-28T23:12:07.881Z,73.99
2022-08-28T23:14:35.625Z,72.69
2022-08-28T23:17:03.435Z,72.67
2022-08-28T23:19:32.162Z,72.74
2022-08-28T23:22:00.281Z,72.74
2022-08-28T23:24:28.099Z,72.06
2022-08-28T23:26:55.946Z,71.76
2022-08-28T23:29:23.707Z,73.04
2022-08-28T23:31:51.426Z,72.06
2022-08-28T23:34:19.365Z,72.29
2022-08-28T23:36:47.477Z,72.06
2022-08-28T23:39:15.885Z,72.60
2022-08-28T23:41:43.560Z,72.74
2022-08-28T23:44:11.393Z,72.55
2022-08-28T23:46:41.175Z,74.15
2022-08-28T23:49:11.533Z,73.07
2022-08-28T23:51:40.925Z,73.70
2022-08-28T23:54:10.405Z,73.64
2022-08-28T23:56:38.917Z,73.83
2022-08-28T23:59:07.023Z,72.60
